Nearby METAR Reports

 

EGMC - Southend-On-Sea, United Kingdom
Distance from station: NE 10km
Updated: 27/02/2021 11:50
Few Clouds
Few Clouds
 Wind from NE
Wind: NE 9 mph , 15 km/h
Temperature: 11°C
Dew Point: 5°C
Humidity: 67%
Barometer: 1042 hPa
Clouds: Few Clouds
Visibility: 6 miles , 10 km
Cloud details: Few Clouds 792 m
2021/02/27 11:50 EGMC 271150Z 05008KT 020V080 9999 FEW026 11/05 Q1042
EGLC - London City Airp, United Kingdom
Distance from station: W 37km
Updated: 27/02/2021 11:50
Few Clouds
Few Clouds
 Wind from E
Wind: E 8 mph , 13 km/h
Temperature: 11°C
Dew Point: 4°C
Humidity: 62%
Barometer: 1042 hPa
Clouds: Few Clouds
Visibility: 6 miles , 10 km
Cloud details: Few Clouds 1006 m
2021/02/27 11:50 EGLC 271150Z AUTO 10007KT 9999 FEW033 11/04 Q1042
EGKB - Biggin Hill, United Kingdom
Distance from station: WSW 45km
Updated: 27/02/2021 11:50
Partly cloudy
Partly cloudy
 Wind from NE
Wind: NE 10 mph , 17 km/h
Temperature: 9°C
Wind Chill: 7°C
Dew Point: 3°C
Humidity: 66%
Barometer: 1041 hPa
Clouds: Partly cloudy
Visibility: 6 miles , 10 km
Cloud details: Partly cloudy 762 m
2021/02/27 11:50 EGKB 271150Z 05009KT 030V090 9999 SCT025 09/03 Q1041
 
EGSS - Stansted Airport, United Kingdom
Distance from station: NNW 48km
Updated: 27/02/2021 11:50
Clear
Clear
 Wind from NE
Wind: NE 5 mph , 7 km/h
Temperature: 11°C
Dew Point: 4°C
Humidity: 62%
Barometer: 1042 hPa
Clouds: Clear
Visibility: 6 miles , 10 km
2021/02/27 11:50 EGSS 271150Z AUTO 05004KT 010V130 9999 NCD 11/04 Q1042
EGKK - London/Gatwick A, United Kingdom
Distance from station: SW 67km
Updated: 27/02/2021 11:50
Few Clouds
Few Clouds
 Wind from ENE
Wind: ENE 9 mph , 15 km/h
Temperature: 11°C
Dew Point: 4°C
Humidity: 62%
Barometer: 1041 hPa
Clouds: Few Clouds
Visibility: 6 miles , 10 km
Cloud details: Few Clouds 914 m
2021/02/27 11:50 EGKK 271150Z 07008KT 9999 FEW030 11/04 Q1041
EGMD - Lydd Airport, United Kingdom
Distance from station: SSE 67km
Updated: 27/02/2021 11:50
Clear
Clear
 Wind from ENE
Wind: ENE 9 mph , 15 km/h
Temperature: 12°C
Dew Point: 6°C
Humidity: 67%
Barometer: 1041 hPa
Clouds: Clear
Visibility: 6 miles , 10 km
2021/02/27 11:50 EGMD 271150Z AUTO 07008KT 9999 NCD 12/06 Q1041
 
EGWU - Northolt Raf, United Kingdom
Distance from station: W 69km
Updated: 27/02/2021 11:50
Few Clouds
Few Clouds
 Wind from E
Wind: E 6 mph , 9 km/h
Temperature: 12°C
Dew Point: 4°C
Humidity: 58%
Barometer: 1041 hPa
Clouds: Few Clouds
Visibility: 6 miles , 10 km
Cloud details: Few Clouds 1036 m
2021/02/27 11:50 EGWU 271150Z 08005KT 9999 FEW034 12/04 Q1041 NOSIG RMK BLU BLU
EGLL - London/Heathrow, United Kingdom
Distance from station: W 72km
Updated: 27/02/2021 11:50
Few Clouds
Few Clouds
 Wind from varies
Wind: varies 3 mph , 6 km/h
Temperature: 11°C
Dew Point: 4°C
Humidity: 62%
Barometer: 1042 hPa
Clouds: Few Clouds
Visibility: 6 miles , 10 km
Cloud details: Few Clouds 975 m
2021/02/27 11:50 EGLL 271150Z AUTO VRB03KT 9999 FEW032 11/04 Q1042
EGUW - Wattisham Raf, United Kingdom
Distance from station: NNE 72km
Updated: 27/02/2021 10:50
Clear
Clear
 Wind from NE
Wind: NE 3 mph , 6 km/h
Temperature: 9°C
Dew Point: 4°C
Humidity: 71%
Barometer: 1041 hPa
Clouds: Clear
Visibility: 6 miles , 10 km
2021/02/27 10:50 EGUW 271050Z AUTO 05003KT 9999 // NCD 09/04 Q1041
 
EGGW - Luton Airport, United Kingdom
Distance from station: WNW 76km
Updated: 27/02/2021 11:50
Clear
Clear
 Wind from varies
Wind: varies 5 mph , 7 km/h
Temperature: 10°C
Wind Chill: 9°C
Dew Point: 4°C
Humidity: 67%
Barometer: 1041 hPa
Clouds: Clear
Visibility: 6 miles , 10 km
2021/02/27 11:50 EGGW 271150Z AUTO VRB04KT 9999 NCD 10/04 Q1041
EGSC - Cambridge, United Kingdom
Distance from station: NNW 81km
Updated: 26/02/2021 17:50
NOT Current
Few Clouds
Few Clouds
 Wind from varies
Wind: varies 1 mph , 2 km/h
Temperature: 9°C
Dew Point: 2°C
Humidity: 62%
Barometer: 1038 hPa
Clouds: Few Clouds
Visibility: 6 miles , 10 km
Cloud details: Few Clouds 1067 m
2021/02/26 17:50 EGSC 261750Z VRB01KT 9999 FEW035 09/02 Q1038